SMRA60 UAOL 031200
AAXX 03121
60060 23960 02903 10164 20076 30178 40257 50008 60001 333 60007 91006 91107=
60101 02560 10817 10170 20099 30276 40296 50001 60001 81100 333 60007 81830 91023 91124=
60105 02960 01602 10180 20030 30200 40282 50001 60001 333 60007 91003 91106=
60106 22965 00212 10150 20040 39943 40303 51008 333 60007 91012 91120=
60107 02560 30808 10164 20070 30289 40299 57003 69921 83800 333 60007 81822 83635 91108 95000=
60115 01470 10406 10122 20047 39742 40301 58003 60001 70044 81100 333 60007 81816 91009 91109=
60135 02956 01012 10170 20031 30181 40267 58001 60001 333 60007 91022 91122=
60141 02689 10809 10133 20000 39599 40280 50004 60001 81100 333 60007 81833 91016 91119=
60150 03960 00614 10127 20022 39606 40266 52002 60001 333 60007=
60155 02960 03202 10155 21006 30168 40269 50001 60001 333 60007 91003 91106=
60156 02960 03102 10159 20043 30029 40267 52004 60001 333 60007 91008 91108=
60192 02970 01605 10150 21037 39657 40260 50009 60001 333 60007 91007 91108=
60195 02560 10410 10047 21052 38572 48584 50001 60001 81200 333 60007 81830 91014 91116 95000=
60210 02981 00506 10109 21083 39084 48600 58001 60001 333 60007 91010 91112=
60220 32456 42602 10176 20065 30247 40255 333 8////=
60230 02960 03504 10166 21004 39718 40252 54000 60001 333 60007 91009 91109=
60252 02960 00606 10202 21068 30163 40252 58002 60001 333 60007=
60265 02970 01602 10104 21146 38970 48583 50000 60001 333 4//// 60007 91004 91106 950// 951//=
60285 02960 01604 10173 21019 30023 40250 50005 60001 333 60007 91007 91110=
60318 02460 41110 10159 20093 30303 40307 52005 60001 84200 333 60007 83823 91016 91117=
60340 02458 40707 10140 20063 30089 40301 58003 60001 84800 333 60007 82815 83633 91011 91111=
60563 11620 50624 10101 21008 39347 48546 58001 60001 70722 82501 333 0//00 82646 85070=
60577 12560 60202 10103 21004 39288 48556 50007 60001 86800 333 0//00 82830 85640 95900=
60585 11920 00422 10146 21013 40191 50003 60001 70700 333 0//00=
60603 12956 01910 10185 21054 40152 58004 60001 333 0//00=
60638 12960 52510 10178 21065 40158 58010 60001 80004 333 0//00 85073=
62458 32960 03016 10176 20078 40208 57024=
64512 32460 2//// 10265 20214 3//// 4//// 82100 333 0//00 5//// 82813 94919 95839=
64710 32960 70808 10352 20045 3//// 4//// 80002 333 0//00 5//// 85075=
64761 32960 70000 10331 20011 3//// 4//// 80002 333 0//00 5//// 87075=
64810 32460 53608 10310 20273 30081 40126 84230 333 0//00 59008 84814 85365 94923=
67005 14570 /0104 10306 20240 40098 69921 700// 333 58005 90710 91112 555 60005=
67225 32570 72613 10265 20198 38701 48477 84230 333 59004 94320=
68109 31780 70606 10280 20127 38311 4//// 57015 71522 85982 333 1//// 2//// 9//// 555 91020=
68114 36/// /2504 1//// 2//// 38779 4//// 58018 333 1//// 2//// 91009 555 91016=



SMUS60 KWBC 031200
AAXX 03124
60001 02584 71413 10200 20118 30212 40250 51013 60001 85810 333 60007=
60005 02570 11208 10204 29048 30194 40231 50009 60001 81800 333 60007=
60010 06/70 /1912 10019 21015 37710 47141 51010 60001 333 60007=
60015 02459 31009 10152 20121 39534 40248 50009 60001 83500 333 60007=
60020 02565 20907 10201 20116 30211 40254 51009 60001 82200 333 60007=
60025 02680 21008 10200 20100 30164 40255 51015 60001 82101 333 60007=
60030 02572 21408 10196 20117 30204 40260 50008 60001 82100 333 60007=
60035 05/69 /1208 10187 20111 30224 40260 50009 60001 333 60007=
60040 02580 21107 10196 20085 30239 40264 50010 60001 82500 333 60007=
60096 02956 01517 10219 21014 30206 40220 50012 60001 333 60007 91024 91126=
60320 01570 40909 10158 20078 30207 40313 50005 60001 70200 83760 333 60007=
60338 02570 10805 10153 20090 30242 40309 50001 60001 81401 333 60007=
60355 12558 63604 10154 20092 40272 58002 60001 86900 333 0//00 81920 85830 95900=
60369 11559 70000 10129 20089 40286 50003 69931 70262 8583/ 333 0//13 82823 83630 91836=
60390 11560 82306 10121 20091 40304 50003 69901 70362 889// 333 0//13 82820 82923 86640 95900=
60402 12560 82608 10137 20059 40291 50000 60001 8585/ 333 0//00 83820 86359 95900=
60403 12670 41404 10137 20077 40283 50000 60001 82230 333 0//00 82836 95900=
60419 12570 80804 10087 20011 40302 58002 60001 888// 333 0//00 82820 87633 95900=
60421 12560 70408 10079 20019 39224 48558 58004 60001 878// 333 0//00 83830 85633 95900=
60423 12565 60404 10095 20048 39292 48586 50000 60001 86800 333 0//00 82826 85630 95900=
60425 11560 61503 10107 20055 40303 58002 60001 85800 333 0//00 82823 85626 95900=
60430 12456 89901 10064 20046 40308 50001 60001 888// 333 0//00 82710 86623 95960=
60437 11250 79902 10051 20042 39061 48553 50001 69971 70262 878// 333 0//13 83705 83816 95960=
60444 12560 73605 10093 20024 39173 48575 54000 60001 878// 333 0//00 82826 86830 95900=
60445 12460 60306 10070 20008 39103 48570 58001 60001 86200 333 0//00 81710 85823 95970=
60452 12570 33004 10137 20080 40317 50001 60001 82102 333 0//00 82820=
60457 12560 33604 10152 20064 40290 58003 60001 82202 333 0//00 82820 95900=
60461 12570 33204 10138 20072 40312 50001 60001 82101 333 0//00 82826 95900=
60467 12558 71604 10136 20028 40278 58006 60001 8483/ 333 0//00 82826 84360 95900=
60468 12565 60407 10081 21021 39313 48567 58002 60001 86800 333 0//00 81820 86626 95900=
60475 12560 70609 10095 21010 39315 48567 58006 60001 878// 333 0//00 82826 86633 95900=
60490 11970 30408 10150 20039 40304 58002 60001 70240 80001 333 0//00 83073 95900=
60492 12560 49901 10123 20064 40317 58001 60001 84800 333 0//00 82823 95900=
60507 12560 40410 10111 20019 40302 58003 60001 84202 333 0//00 84820 95900=
60511 12560 70206 10068 20011 39144 48569 50003 60001 875// 333 0//00 87623 95900=
60514 12560 80204 10079 20034 39358 48580 58001 60001 888// 333 0//00 83820 85626 95900=
60515 12560 60205 10114 20015 40287 58004 60001 82230 333 0//00 82826 84360 95900=
60517 12565 33607 10146 20075 40300 50000 60001 82202 333 0//00 82826 95900=
60518 12565 10406 10139 20078 40345 50004 60001 81201 333 0//00 81820 91807 95900=
60520 12558 40406 10108 20048 40302 50000 60001 82202 333 0//00 82826 95970=
60522 12560 30104 10124 20064 40315 58005 60001 82201 333 0//00 82826 95900=
60525 12660 63403 10161 20000 40269 58006 60001 83230 333 0//00 83840 84360 95900=
60531 12560 42803 10130 20071 40309 50001 60001 82202 333 0//00 82826 83073 95900=
60535 12558 70606 10057 20002 38901 48558 50001 60001 8523/ 333 0//00 85826 83360 95900=
60536 11560 73206 10092 20034 39408 48577 50000 60001 70342 84502 333 0//00 84630 84073 95900=
60549 12558 60412 10057 21007 38996 48582 50005 60001 86800 333 0//00 83830 84633 95900=
60550 12558 60416 10054 21009 38701 48551 50005 60001 83502 333 0//00 83626 84073 95900=
60555 11620 60615 10167 20027 40232 58010 60001 70721 82250 333 0//00 82840 85360=
60557 12458 60709 10055 20010 38930 48565 50004 60001 86200 333 0//00 84713 95990=
60559 11610 70820 10153 20032 40245 58009 60001 70722 83531 333 0//00 83640 83360=
60560 12560 60805 10097 20010 39023 48566 50000 60001 84841 333 0//00 83826 83073 95930=
60566 11608 70424 10127 21018 40240 50004 60001 70722 878// 333 0//00 84633 83840=
60571 12558 60405 10108 21024 39318 48569 50003 60001 85802 333 0//00 82830 83840 95900=
60580 11606 80621 10153 20024 40202 50000 60001 70722 8423/ 333 0//00 84840 84360=
60581 11610 70723 10180 20027 40183 50002 60001 70722 8553/ 333 0//00 85640 83360=
60590 11915 60322 10133 21001 40207 50003 60001 70722 86070 333 0//00 86460=
60602 11915 00817 10133 20000 40261 50001 60001 70700 333 0//00 95990=
60607 11940 00315 10163 21003 40214 50000 60001 70500 333 0//00=
60611 11640 61518 10189 21046 40161 58016 60001 70721 82132 333 0//00 82846 83070=
60620 11950 00116 10148 21020 40223 50004 60001 70700 333 0//00=
60630 11940 33508 10150 21045 40184 58002 60001 70600 80002 333 0//00 83075=
60640 12860 40104 10200 21105 40150 58016 60001 82031 333 0//00 82358 83070=
60656 12960 10916 10144 21118 40274 53006 60001 80002 333 0//00 81073=
60670 12962 71613 10189 21097 39073 48517 58012 60001 82034 333 0//00 82362 86073 95900=
60680 12965 62212 10217 21124 38642 48519 58014 60001 81034 333 0//00 81360 86073 95900=
60686 12960 40214 10174 21102 40190 58010 60001 82032 333 0//00 82360=
61901 11380 71221 10219 20189 39669 40169 58009 69901 70281 878// 91150 333 83708 86813 90710 91126=
61902 32488 51416 10281 20225 40140 85800 333 59007 83812 84640=
61980 14568 /1315 10293 20237 40112 69941 700// 333 58008 90710 91128 555 60005=
61998 11581 43216 10139 20065 30167 40203 57006 60001 703// 81141 333 58020 81826 84073 90710 91129 555 60005=
62306 32560 32207 10167 20065 40244 57003 83500=
62309 32560 42704 10190 20060 40212 57024 84500=
62318 11556 62910 10183 20093 40249 52005 60081 78122 86800=
62325 32560 62407 10165 20117 40216 57024 86200=
62332 32560 32504 10164 20092 40230 57010 83200=
62366 35560 62608 10176 20042 40212 57029 86200=
62387 32960 03403 10183 20041 40221 57031=
62393 32960 00107 10172 20038 40227 57033=
62405 32960 02303 10205 20100 40199 57033=
62414 32960 03506 10211 20025 40189 57029=
62419 32960 00508 10190 20030 40197 57027=
62420 32960 02803 10188 20003 40226 57032=
62423 41217 32960 03209 10252 20180 30126 40155 333 58018=
62435 32960 03603 10188 20031 40215 57027=
62440 32560 32809 10190 20037 40227 57023 83200=
62459 32960 02807 10197 20034 40200 57025=
62465 32960 03307 10238 20059 40193 57023=
63210 32580 13610 10264 20190 40133 81200 333 10278 58007 81832=
63260 32980 10719 20220 20284 40098 80001 333 10284 59003 81078=
63331 42580 33004 10276 20056 38083 40232 83860 333 59021 81827 82628=
63332 42580 43604 10270 20124 38205 40042 82102 333 58001 82825 83070=
63340 42580 21802 10266 20082 37956 40181 81101 333 58008 81826=
63402 42580 52302 10284 20077 3//// 4//// 81202 333 5//// 81829 84070=
63403 41560 60902 10244 20129 70520 82230 333 82823 85358=
63450 42580 11104 10240 21050 37745 40262 81100 333 58000 81825=
63453 42580 40408 10314 20126 39062 40284 81204 333 58001 81823 83070=
63460 42580 53601 10288 20048 82201 333 82824 83070=
63471 32580 33602 10300 20133 38868 40102 81101 333 59003 81827 83057=
63474 42580 30706 10240 2//// 37595 4//// 81101 333 59001 81823=
63478 42980 10806 10358 20135 39766 40084 80001 333 59001 81070=
63500 42580 30701 10334 20114 83201 333 83825=
63533 42580 50604 10314 20051 38492 4//// 84801 333 59001 82829 83630=
63980 41582 73315 10287 20228 40088 70382 85844 333 58007 85821 87365 94333 91121=
64501 32360 40108 10307 20255 30098 40107 84200 333 0//00 59005 84810 94919 95839=
64510 32470 3//// 10314 20206 39450 40098 83200 333 0//00 59010 83816 94919 95839=
64551 42360 4//// 10316 20245 3//// 4//// 888// 333 0//00 5//// 84810 94919 95839=
64702 32960 53604 10336 20043 3//// 4//// 80002 333 0//00 5//// 85075=
64705 32960 61008 10376 20034 3//// 4//// 80002 333 0//00 5//// 86075=
64709 32960 70404 10312 20071 3//// 4//// 80002 333 5//// 87075=
64750 32960 71206 10375 21009 39686 40086 80002 333 0//00 58012 87075=
64754 32962 70808 10375 20127 3//// 4//// 80002 333 0//00 5//// 87075=
64758 32962 60406 10388 20009 3//// 4//// 80002 333 0//00 5//// 86075=
67217 32470 72802 10232 20157 38677 48539 8697/ 333 58001 94326=
67243 32570 41606 10334 20221 40077 82230 333 59002 94320=
67261 32570 31206 10349 20230 40090 83200 333 59010 94320=
67280 32470 42507 10347 20228 40129 84201 333 58034 94325=
67283 32580 52005 10328 20227 40110 85200 333 59006 94320=
67335 32580 31806 10293 20209 40117 57014 82230 333 94320=
68014 31689 72303 10218 20174 38592 48509 57013 71722 86983 333 10277 20189 91007 555 91018=
68110 31689 61005 10294 20138 38281 48493 57015 71522 86985 333 10313 20182 91011 555 91019=
68212 36/// ///// 1//// 2//// 38897 4//// 58012 333 1//// 2//// 555 91017=
68906 11597 82212 10170 20160 39972 40035 57002 60201 76166 8372/ 222// 00152 318// 40402 333 10198 20167 91019 555 20038 60125 91003=
68994 12598 32721 10112 20037 30041 40069 53007 69961 83500 222// 00054 333 10135 20070 91031 555 20006 91006=